.
WxDataArchive / Data Records for 2012-03-29
2012-03-28 March 2012 2012-03-30

Data Records for Thursday, 29 March 2012

Time	Temp	Chill	HIndex	Humid	Dewpt	 Wind 	HiWind	WindDir	Rain 	Barom 
-----	----	-----	------	-----	-----	------	------	-------	-----	----- 
00:00	47.1	47.1	47.1	62	34.8	0	1	248	0.00	29.993 
00:05	47.0	47.0	47.0	63	35.1	0	1	248	0.00	29.993 
00:10	47.0	47.0	47.0	63	35.1	0	1	248	0.00	29.993 
00:15	46.8	46.8	46.8	63	34.9	0	0	---	0.00	29.998 
00:20	46.7	46.7	46.7	63	34.8	0	0	---	0.00	29.998 
00:25	46.5	46.5	46.5	63	34.6	0	0	---	0.00	29.998 
00:30	46.4	46.4	46.4	64	34.9	0	0	---	0.00	30.000 
00:35	46.1	46.1	46.1	64	34.6	0	0	---	0.00	30.000 
00:40	45.8	45.8	45.8	65	34.7	0	0	---	0.00	30.000 
00:45	45.7	45.7	45.7	65	34.6	0	0	---	0.00	29.996 
00:50	45.7	45.7	45.7	65	34.6	0	0	---	0.00	29.996 
00:55	45.5	45.5	45.5	65	34.4	0	0	---	0.00	29.996 
01:00	45.4	45.4	45.4	65	34.3	0	0	---	0.00	29.999 
01:05	45.2	45.2	45.2	65	34.1	0	0	---	0.00	29.999 
01:10	44.9	44.9	44.9	66	34.2	0	0	---	0.00	29.999 
01:15	44.6	44.6	44.6	66	34.0	0	0	---	0.00	30.001 
01:20	44.5	44.5	44.5	67	34.2	0	0	---	0.00	30.001 
01:25	44.2	44.2	44.2	67	33.9	0	0	---	0.00	30.001 
01:30	43.9	43.9	43.9	68	34.0	0	0	---	0.00	29.999 
01:35	43.5	43.5	43.5	69	34.0	0	0	---	0.00	29.999 
01:40	43.2	43.2	43.2	69	33.7	0	0	---	0.00	29.999 
01:45	42.9	42.9	42.9	71	34.2	0	0	---	0.00	30.004 
01:50	42.6	42.6	42.6	71	33.9	0	0	---	0.00	30.004 
01:55	42.3	42.3	42.3	72	33.9	0	0	---	0.00	30.004 
02:00	41.9	41.9	41.9	73	33.9	0	0	---	0.00	30.006 
02:05	41.6	41.6	41.6	74	33.9	0	0	---	0.00	30.006 
02:10	41.3	41.3	41.3	74	33.6	0	0	---	0.00	30.006 
02:15	41.1	41.1	41.1	75	33.8	0	0	---	0.00	30.009 
02:20	40.9	40.9	40.9	75	33.6	0	0	---	0.00	30.009 
02:25	40.6	40.6	40.6	76	33.6	0	0	---	0.00	30.009 
02:30	40.3	40.3	40.3	77	33.7	0	0	---	0.00	30.006 
02:35	40.1	40.1	40.1	77	33.5	0	0	---	0.00	30.006 
02:40	39.9	39.9	39.9	78	33.6	0	0	---	0.00	30.006 
02:45	39.6	39.6	39.6	79	33.6	0	0	---	0.00	30.002 
02:50	39.5	39.5	39.5	79	33.5	0	0	---	0.00	30.002 
02:55	39.3	39.3	39.3	80	33.7	0	0	---	0.00	30.002 
03:00	39.2	39.2	39.2	81	33.9	0	0	---	0.00	29.999 
03:05	38.9	38.9	38.9	81	33.6	0	0	---	0.00	29.999 
03:10	38.8	38.8	38.8	81	33.5	0	0	---	0.00	29.999 
03:15	38.6	38.6	38.6	82	33.6	0	0	---	0.00	29.998 
03:20	38.5	38.5	38.5	82	33.5	0	0	---	0.00	29.998 
03:25	38.3	38.3	38.3	83	33.6	0	0	---	0.00	29.998 
03:30	38.2	38.2	38.2	83	33.5	0	0	---	0.00	29.999 
03:35	38.2	38.2	38.2	83	33.5	0	0	---	0.00	29.999 
03:40	38.0	38.0	38.0	84	33.6	0	0	---	0.00	29.999 
03:45	37.9	37.9	37.9	84	33.5	0	0	---	0.00	30.000 
03:50	37.8	37.8	37.8	84	33.4	0	0	---	0.00	30.000 
03:55	37.8	37.8	37.8	84	33.4	0	0	---	0.00	30.000 
04:00	37.6	37.6	37.6	85	33.5	0	0	---	0.00	30.000 
04:05	37.5	37.5	37.5	85	33.4	0	0	---	0.00	30.000 
04:10	37.5	37.5	37.5	86	33.7	0	1	248	0.00	30.000 
04:15	37.3	37.3	37.3	86	33.5	0	0	---	0.00	30.003 
04:20	37.3	37.3	37.3	86	33.5	0	0	---	0.00	30.003 
04:25	37.2	37.2	37.2	86	33.4	0	0	---	0.00	30.003 
04:30	37.0	37.0	37.0	86	33.2	0	0	---	0.00	30.003 
04:35	36.9	36.9	36.9	87	33.4	0	0	---	0.00	30.003 
04:40	36.8	36.8	36.8	87	33.3	0	0	---	0.00	30.003 
04:45	36.6	36.6	36.6	87	33.1	0	0	---	0.00	30.003 
04:50	36.6	36.6	36.6	87	33.1	0	0	---	0.00	30.003 
04:55	36.5	36.5	36.5	87	33.0	0	0	---	0.00	30.003 
05:00	36.3	36.3	36.3	87	32.8	0	0	---	0.00	30.005 
05:05	36.2	36.2	36.2	87	32.7	0	0	---	0.00	30.005 
05:10	36.0	36.0	36.0	87	32.5	0	0	---	0.00	30.005 
05:15	35.9	35.9	35.9	87	32.4	0	0	---	0.00	30.011 
05:20	35.9	35.9	35.9	88	32.7	0	0	---	0.00	30.011 
05:25	35.8	35.8	35.8	88	32.6	0	0	---	0.00	30.011 
05:30	35.8	35.8	35.8	88	32.6	0	0	---	0.00	30.020 
05:35	35.8	35.8	35.8	88	32.6	0	0	---	0.00	30.020 
05:40	35.6	35.6	35.6	88	32.4	0	0	---	0.00	30.020 
05:45	35.6	35.6	35.6	88	32.4	0	0	---	0.00	30.021 
05:50	35.6	35.6	35.6	89	32.7	0	0	---	0.00	30.021 
05:55	35.5	35.5	35.5	89	32.6	0	0	---	0.00	30.021 
06:00	35.3	35.3	35.3	89	32.4	0	0	---	0.00	30.025 
06:05	35.3	35.3	35.3	89	32.4	0	0	---	0.00	30.025 
06:10	35.2	35.2	35.2	89	32.3	0	0	---	0.00	30.025 
06:15	35.2	35.2	35.2	89	32.3	0	0	---	0.00	30.041 
06:20	35.3	35.3	35.3	90	32.7	0	0	---	0.00	30.041 
06:25	35.3	35.3	35.3	90	32.7	0	0	---	0.00	30.041 
06:30	35.2	35.2	35.2	90	32.6	0	0	---	0.00	30.047 
06:35	35.2	35.2	35.2	90	32.6	0	0	---	0.00	30.047 
06:40	35.2	35.2	35.2	90	32.6	0	0	---	0.00	30.047 
06:45	35.0	35.0	35.0	90	32.4	0	0	---	0.00	30.054 
06:50	35.0	35.0	35.0	90	32.4	0	0	---	0.00	30.054 
06:55	35.0	35.0	35.0	90	32.4	0	0	---	0.00	30.054 
07:00	34.9	34.9	34.9	90	32.3	0	0	---	0.00	30.057 
07:05	34.9	34.9	34.9	90	32.3	0	0	---	0.00	30.057 
07:10	34.7	34.7	34.7	90	32.1	0	0	---	0.00	30.057 
07:15	34.7	34.7	34.7	90	32.1	0	0	---	0.00	30.067 
07:20	34.6	34.6	34.6	90	32.0	0	0	---	0.00	30.067 
07:25	34.4	34.4	34.4	90	31.8	0	0	---	0.00	30.067 
07:30	34.4	34.4	34.4	90	31.8	0	0	---	0.00	30.074 
07:35	34.3	34.3	34.3	90	31.7	0	0	---	0.00	30.074 
07:40	34.3	34.3	34.3	91	32.0	0	0	---	0.00	30.074 
07:45	34.3	34.3	34.3	91	32.0	0	0	---	0.00	30.079 
07:50	34.3	34.3	34.3	91	32.0	0	0	---	0.00	30.079 
07:55	34.4	34.4	34.4	91	32.0	0	0	---	0.00	30.079 
08:00	34.6	34.6	34.6	91	32.2	0	0	---	0.00	30.089 
08:05	34.9	34.9	34.9	92	32.8	0	0	---	0.00	30.089 
08:10	35.2	35.2	35.2	92	33.1	0	0	---	0.00	30.089 
08:15	35.6	35.6	35.6	92	33.5	0	0	---	0.00	30.095 
08:20	36.2	36.2	36.2	92	34.1	0	0	---	0.00	30.095 
08:25	36.6	36.6	36.6	92	34.5	0	1	248	0.00	30.095 
08:30	37.2	37.2	37.2	92	35.1	0	2	248	0.00	30.094 
08:35	37.9	37.9	37.9	92	35.8	0	1	248	0.00	30.094 
08:40	38.8	38.8	38.8	90	36.1	0	1	248	0.00	30.094 
08:45	39.5	39.5	39.5	88	36.2	0	2	248	0.00	30.097 
08:50	40.2	40.2	40.2	85	36.1	1	4	112	0.00	30.097 
08:55	40.9	40.9	40.9	82	35.8	0	2	112	0.00	30.097 
09:00	41.3	41.3	41.3	81	35.9	0	1	112	0.00	30.101 
09:05	41.8	41.8	41.8	78	35.5	0	1	112	0.00	30.101 
09:10	41.8	41.8	41.8	72	33.4	1	5	112	0.00	30.101 
09:15	42.1	42.1	42.1	72	33.7	1	3	112	0.00	30.108 
09:20	42.3	42.3	42.3	70	33.2	0	2	112	0.00	30.108 
09:25	42.8	42.8	42.8	69	33.3	0	4	112	0.00	30.108 
09:30	42.8	42.8	42.8	68	33.0	2	6	112	0.00	30.106 
09:35	43.1	43.1	43.1	67	32.9	1	5	112	0.00	30.106 
09:40	43.3	43.3	43.3	67	33.1	0	2	112	0.00	30.106 
09:45	43.6	43.6	43.6	66	33.0	1	3	112	0.00	30.106 
09:50	44.1	44.1	44.1	64	32.7	2	5	90	0.00	30.106 
09:55	44.2	44.2	44.2	65	33.2	2	5	112	0.00	30.106 
10:00	44.3	44.3	44.3	64	32.9	2	5	112	0.00	30.105 
10:05	44.5	44.5	44.5	64	33.1	1	5	112	0.00	30.105 
10:10	44.8	44.8	44.8	63	33.0	1	4	112	0.00	30.105 
10:15	45.2	45.2	45.2	61	32.6	2	4	90	0.00	30.105 
10:20	45.5	45.5	45.5	62	33.2	3	6	112	0.00	30.105 
10:25	46.1	46.1	46.1	62	33.8	0	3	112	0.00	30.105 
10:30	46.4	46.4	46.4	60	33.3	2	5	90	0.00	30.112 
10:35	46.5	46.5	46.5	61	33.8	2	4	90	0.00	30.112 
10:40	46.8	46.8	46.8	59	33.2	1	2	90	0.00	30.112 
10:45	47.1	47.1	47.1	58	33.1	1	3	90	0.00	30.116 
10:50	47.6	47.6	47.6	59	34.0	0	1	90	0.00	30.116 
10:55	48.0	48.0	48.0	59	34.4	0	3	90	0.00	30.116 
11:00	48.8	48.8	48.8	58	34.7	0	3	90	0.00	30.119 
11:05	49.5	49.5	49.5	57	34.9	0	2	90	0.00	30.119 
11:10	49.8	49.8	49.8	57	35.2	1	3	90	0.00	30.119 
11:15	49.6	49.6	49.6	55	34.1	1	4	90	0.00	30.120 
11:20	49.6	49.6	49.6	53	33.2	0	2	90	0.00	30.120 
11:25	49.8	49.8	49.8	54	33.8	1	4	90	0.00	30.120 
11:30	50.1	50.1	50.1	54	34.1	1	3	90	0.00	30.121 
11:35	49.9	49.9	49.9	54	33.9	1	3	90	0.00	30.121 
11:40	49.9	49.9	49.9	55	34.4	0	3	90	0.00	30.121 
11:45	49.9	49.9	49.9	54	33.9	2	5	112	0.00	30.121 
11:50	50.1	50.1	50.1	57	35.5	2	5	112	0.00	30.121 
11:55	50.5	50.5	50.5	57	35.8	1	3	112	0.00	30.121 
12:00	50.8	50.8	50.8	54	34.8	0	1	112	0.00	30.119 
12:05	51.0	51.0	51.0	54	34.9	1	5	112	0.00	30.119 
12:10	51.1	51.1	51.1	54	35.0	1	3	112	0.00	30.119 
12:15	51.1	51.1	51.1	52	34.1	1	3	90	0.00	30.117 
12:20	51.1	51.1	51.1	54	35.0	1	3	90	0.00	30.117 
12:25	51.4	51.4	51.4	56	36.2	0	3	90	0.00	30.117 
12:30	51.7	51.7	51.7	53	35.1	1	4	90	0.00	30.114 
12:35	52.2	52.2	52.2	56	37.0	1	5	112	0.00	30.114 
12:40	52.3	52.3	52.3	51	34.7	1	4	112	0.00	30.114 
12:45	52.3	52.3	52.3	51	34.7	1	5	112	0.00	30.108 
12:50	52.3	52.3	52.3	52	35.2	1	4	68	0.00	30.108 
12:55	52.3	52.3	52.3	53	35.7	0	3	90	0.00	30.108 
13:00	52.6	52.6	52.6	53	36.0	0	3	68	0.00	30.105 
13:05	52.0	52.0	52.0	52	34.9	3	5	112	0.00	30.105 
13:10	51.4	51.4	51.4	53	34.8	1	5	90	0.00	30.105 
13:15	51.6	51.6	51.6	58	37.3	1	3	90	0.00	30.110 
13:20	52.0	52.0	52.0	52	34.9	1	3	90	0.00	30.110 
13:25	52.5	52.5	52.5	53	35.9	1	3	90	0.00	30.110 
13:30	53.1	53.1	53.1	54	36.9	1	3	90	0.00	30.103 
13:35	53.3	53.3	53.3	50	35.1	1	3	90	0.00	30.103 
13:40	53.6	53.6	53.6	53	36.9	0	2	90	0.00	30.103 
13:45	53.8	53.8	53.8	54	37.5	1	4	90	0.00	30.093 
13:50	53.8	53.8	53.8	53	37.1	1	5	90	0.00	30.093 
13:55	53.6	53.6	53.6	50	35.4	1	4	90	0.00	30.093 
14:00	53.6	53.6	53.6	53	36.9	0	3	90	0.00	30.089 
14:05	53.8	53.8	53.8	51	36.1	1	4	90	0.00	30.089 
14:10	53.3	53.3	53.3	51	35.6	1	3	90	0.00	30.089 
14:15	53.2	53.2	53.2	51	35.5	1	4	90	0.00	30.092 
14:20	53.1	53.1	53.1	52	35.9	1	3	90	0.00	30.092 
14:25	53.1	53.1	53.1	50	35.0	2	5	90	0.00	30.092 
14:30	53.3	53.3	53.3	55	37.5	1	4	90	0.00	30.080 
14:35	53.9	53.9	53.9	52	36.7	1	5	90	0.00	30.080 
14:40	54.4	54.4	54.4	53	37.6	0	2	90	0.00	30.080 
14:45	54.8	54.8	54.8	50	36.5	1	3	90	0.00	30.073 
14:50	54.4	54.4	54.4	50	36.2	1	4	90	0.00	30.073 
14:55	54.1	54.1	54.1	52	36.9	1	4	90	0.00	30.073 
15:00	54.4	54.4	54.4	49	35.6	1	3	90	0.00	30.062 
15:05	54.5	54.5	54.5	50	36.2	1	3	90	0.00	30.062 
15:10	54.8	54.8	54.8	50	36.5	1	3	90	0.00	30.062 
15:15	55.0	55.0	55.0	53	38.2	1	4	90	0.00	30.058 
15:20	55.0	55.0	55.0	48	35.7	1	5	68	0.00	30.058 
15:25	54.5	54.5	54.5	51	36.7	2	5	112	0.00	30.058 
15:30	54.5	54.5	54.5	50	36.2	2	6	90	0.00	30.059 
15:35	54.4	54.4	54.4	50	36.2	1	5	90	0.00	30.059 
15:40	54.7	54.7	54.7	52	37.4	2	7	112	0.00	30.059 
15:45	54.5	54.5	54.5	49	35.7	3	6	112	0.00	30.055 
15:50	54.4	54.4	54.4	48	35.1	3	5	90	0.00	30.055 
15:55	54.2	54.2	54.2	49	35.5	1	4	112	0.00	30.055 
16:00	54.4	54.4	54.4	50	36.2	1	2	112	0.00	30.048 
16:05	54.7	54.7	54.7	50	36.4	1	4	112	0.00	30.048 
16:10	55.1	55.1	55.1	51	37.3	1	4	112	0.00	30.048 
16:15	55.1	55.1	55.1	49	36.3	2	4	112	0.00	30.046 
16:20	55.1	55.1	55.1	48	35.8	0	2	112	0.00	30.046 
16:25	55.3	55.3	55.3	46	34.9	0	2	112	0.00	30.046 
16:30	55.3	55.3	55.3	48	35.9	0	3	112	0.00	30.046 
16:35	55.3	55.3	55.3	46	34.9	0	2	112	0.00	30.046 
16:40	55.1	55.1	55.1	46	34.7	1	4	112	0.00	30.046 
16:45	55.1	55.1	55.1	49	36.3	0	4	112	0.00	30.040 
16:50	55.1	55.1	55.1	48	35.8	1	4	112	0.00	30.040 
16:55	55.0	55.0	55.0	46	34.6	2	5	112	0.00	30.040 
17:00	54.8	54.8	54.8	48	35.5	2	4	112	0.00	30.036 
17:05	54.8	54.8	54.8	47	35.0	1	4	135	0.00	30.036 
17:10	54.8	54.8	54.8	49	36.0	0	1	135	0.00	30.036 
17:15	54.8	54.8	54.8	48	35.5	1	5	135	0.00	30.044 
17:20	54.7	54.7	54.7	49	35.9	2	5	68	0.00	30.044 
17:25	54.5	54.5	54.5	47	34.7	2	5	112	0.00	30.044 
17:30	54.4	54.4	54.4	48	35.1	1	6	112	0.00	30.044 
17:35	54.4	54.4	54.4	49	35.6	1	5	135	0.00	30.044 
17:40	54.1	54.1	54.1	48	34.8	3	5	112	0.00	30.044 
17:45	53.8	53.8	53.8	49	35.1	2	5	112	0.00	30.046 
17:50	53.8	53.8	53.8	50	35.6	2	6	135	0.00	30.046 
17:55	53.6	53.6	53.6	49	34.9	2	4	90	0.00	30.046 
18:00	53.5	53.5	53.5	50	35.3	2	6	90	0.00	30.048 
18:05	53.3	53.3	53.3	50	35.1	2	5	112	0.00	30.048 
18:10	53.1	53.1	53.1	52	35.9	1	4	112	0.00	30.048 
18:15	52.9	52.9	52.9	51	35.3	1	3	112	0.00	30.057 
18:20	52.8	52.8	52.8	51	35.2	2	4	112	0.00	30.057 
18:25	52.6	52.6	52.6	50	34.5	3	6	90	0.00	30.057 
18:30	52.5	52.5	52.5	51	34.9	2	3	90	0.00	30.058 
18:35	52.5	52.5	52.5	51	34.9	2	5	112	0.00	30.058 
18:40	52.5	52.5	52.5	52	35.4	2	6	112	0.00	30.058 
18:45	52.3	52.3	52.3	50	34.2	3	5	112	0.00	30.061 
18:50	52.0	52.0	52.0	51	34.4	2	6	112	0.00	30.061 
18:55	52.0	52.0	52.0	51	34.4	2	4	112	0.00	30.061 
19:00	51.9	51.9	51.9	51	34.3	2	5	68	0.00	30.065 
19:05	51.9	51.9	51.9	52	34.8	2	4	90	0.00	30.065 
19:10	51.7	51.7	51.7	52	34.6	2	6	135	0.00	30.065 
19:15	51.6	51.6	51.6	53	35.0	2	4	90	0.00	30.065 
19:20	51.3	51.3	51.3	53	34.8	2	5	112	0.00	30.065 
19:25	51.1	51.1	51.1	54	35.0	2	6	90	0.00	30.065 
19:30	51.0	51.0	51.0	54	34.9	2	4	90	0.00	30.067 
19:35	50.8	50.8	50.8	54	34.8	2	4	90	0.00	30.067 
19:40	50.7	50.7	50.7	54	34.7	2	4	112	0.00	30.067 
19:45	50.5	50.5	50.5	55	34.9	2	4	112	0.00	30.068 
19:50	50.2	50.2	50.2	55	34.7	1	3	68	0.00	30.068 
19:55	50.1	50.1	50.1	55	34.6	2	4	90	0.00	30.068 
20:00	49.9	49.9	49.9	56	34.8	1	4	90	0.00	30.073 
20:05	49.8	49.8	49.8	57	35.2	0	3	90	0.00	30.073 
20:10	49.6	49.6	49.6	57	35.0	1	4	90	0.00	30.073 
20:15	49.4	49.4	49.4	57	34.8	1	2	90	0.00	30.071 
20:20	49.2	49.2	49.2	57	34.6	1	3	90	0.00	30.071 
20:25	49.1	49.1	49.1	58	35.0	0	2	90	0.00	30.071 
20:30	48.9	48.9	48.9	58	34.8	0	1	90	0.00	30.077 
20:35	48.6	48.6	48.6	59	34.9	0	2	90	0.00	30.077 
20:40	48.5	48.5	48.5	59	34.8	1	3	90	0.00	30.077 
20:45	48.3	48.3	48.3	60	35.1	1	3	90	0.00	30.077 
20:50	48.2	48.2	48.2	61	35.4	1	3	90	0.00	30.077 
20:55	48.0	48.0	48.0	62	35.6	1	5	90	0.00	30.077 
21:00	47.9	47.9	47.9	62	35.5	2	5	90	0.00	30.080 
21:05	47.7	47.7	47.7	62	35.3	2	5	135	0.00	30.080 
21:10	47.6	47.6	47.6	62	35.2	1	4	90	0.00	30.080 
21:15	47.6	47.6	47.6	63	35.6	1	3	90	0.00	30.079 
21:20	47.6	47.6	47.6	63	35.6	1	4	90	0.00	30.079 
21:25	47.6	47.6	47.6	63	35.6	2	4	68	0.00	30.079 
21:30	47.6	47.6	47.6	63	35.6	2	6	90	0.00	30.076 
21:35	47.6	47.6	47.6	62	35.2	2	5	90	0.00	30.076 
21:40	47.6	47.6	47.6	62	35.2	3	7	90	0.00	30.076 
21:45	47.4	45.9	47.4	62	35.0	4	10	90	0.00	30.079 
21:50	47.1	45.5	47.1	62	34.8	4	10	90	0.00	30.079 
21:55	46.5	43.5	46.5	62	34.2	6	12	90	0.00	30.079 
22:00	46.0	43.5	46.0	63	34.1	5	12	90	0.00	30.081 
22:05	45.5	43.7	45.5	64	34.0	4	10	112	0.00	30.081 
22:10	45.4	42.8	45.4	65	34.3	5	10	90	0.00	30.081 
22:15	45.2	43.3	45.2	66	34.5	4	9	112	0.00	30.075 
22:20	44.9	42.2	44.9	66	34.2	5	11	112	0.00	30.075 
22:25	44.6	41.9	44.6	66	34.0	5	12	112	0.00	30.075 
22:30	44.5	41.8	44.5	66	33.9	5	11	90	0.00	30.074 
22:35	44.2	40.8	44.2	66	33.6	6	13	90	0.00	30.074 
22:40	43.9	41.1	43.9	67	33.7	5	11	112	0.00	30.074 
22:45	43.6	41.5	43.6	68	33.7	4	11	90	0.00	30.070 
22:50	43.3	41.1	43.3	68	33.5	4	10	112	0.00	30.070 
22:55	43.2	40.2	43.2	68	33.4	5	11	112	0.00	30.070 
23:00	43.1	40.9	43.1	68	33.3	4	11	90	0.00	30.060 
23:05	42.9	40.7	42.9	68	33.1	4	10	112	0.00	30.060 
23:10	42.6	39.5	42.6	68	32.8	5	11	112	0.00	30.060 
23:15	42.5	40.2	42.5	68	32.7	4	7	90	0.00	30.059 
23:20	42.5	42.5	42.5	68	32.7	3	9	90	0.00	30.059 
23:25	42.3	39.2	42.3	69	32.9	5	11	112	0.00	30.059 
23:30	42.3	40.0	42.3	69	32.9	4	10	112	0.00	30.058 
23:35	42.2	42.2	42.2	70	33.1	3	10	90	0.00	30.058 
23:40	42.1	39.7	42.1	69	32.7	4	9	90	0.00	30.058 
23:45	41.9	38.7	41.9	69	32.5	5	10	90	0.00	30.054 
23:50	41.8	39.4	41.8	69	32.4	4	11	112	0.00	30.054 
23:55	41.8	39.4	41.8	69	32.4	4	10	90	0.00	30.054 

CoCoRaHS
IN-AL-39
A2 Web Hosting
Creative Commons License
GoDaddy
search engine by freefind advanced

loaded 2018-11-20 07:31:59 • last modified 2010-11-18 10:43:29
Privacy PolicyDisclaimer
• wx.awcolley.com is powered by PmWiki v.2002016 •
• all content (unless otherwise noted) © 2018 A W Colley